Time;durP1;ratioP1;P1;durP2;ratioP2;P2;SDS_P1;SDS_P2;PMS_P1;PMS_P2;Temp;Humidity;BMP_temperature;BMP_pressure;BME280_temperature;BME280_humidity;BME280_pressure;Samples;Min_cycle;Max_cycle;Signal;HPM_P1;HPM_P2
2023/01/16 00:01:01;;;;;;;;;1.00;0.33;;;;;8.97;64.48;99605.47;2005282;28;2737750;-78
2023/01/16 00:02:14;;;;;;;;;2.50;0.67;;;;;8.94;64.81;99595.97;2005849;28;2727370;-78
2023/01/16 00:03:27;;;;;;;;;0.83;0.83;;;;;8.95;64.90;99584.56;2013514;28;2732024;-78
2023/01/16 00:04:41;;;;;;;;;1.00;0.83;;;;;8.96;64.60;99570.53;2013938;28;2731572;-78
2023/01/16 00:05:54;;;;;;;;;5.00;1.50;;;;;8.97;65.02;99582.75;2013236;28;2732573;-77
2023/01/16 00:07:07;;;;;;;;;2.50;1.17;;;;;8.98;64.30;99558.25;2013221;28;2735039;-78
2023/01/16 00:08:20;;;;;;;;;3.83;0.50;;;;;8.99;64.96;99564.31;2012888;28;2731532;-78
2023/01/16 00:09:33;;;;;;;;;1.00;0.83;;;;;8.99;64.67;99554.69;1998473;28;2727353;-78
2023/01/16 00:10:47;;;;;;;;;1.00;1.00;;;;;9.01;64.72;99541.53;2012471;28;2732629;-77
2023/01/16 00:12:00;;;;;;;;;0.00;0.00;;;;;9.03;65.06;99551.94;2007273;28;2725266;-77
2023/01/16 00:13:13;;;;;;;;;1.67;0.67;;;;;9.00;64.64;99532.81;2013000;28;2729441;-77
2023/01/16 00:14:29;;;;;;;;;1.50;1.00;;;;;9.01;65.06;99517.94;2013733;28;2734120;-78
2023/01/16 00:15:45;;;;;;;;;0.67;0.67;;;;;9.03;64.34;99507.38;2013902;28;2727365;-78
2023/01/16 00:16:58;;;;;;;;;0.67;0.67;;;;;9.03;64.82;99516.09;2009265;28;2727342;-78
2023/01/16 00:18:12;;;;;;;;;3.00;0.17;;;;;9.03;64.62;99502.97;2005253;28;2733596;-78
2023/01/16 00:19:25;;;;;;;;;3.33;0.50;;;;;9.04;64.99;99494.19;2005634;28;2738835;-78
2023/01/16 00:20:38;;;;;;;;;1.00;1.00;;;;;9.04;64.67;99485.50;2005462;28;2729906;-78
2023/01/16 00:21:51;;;;;;;;;2.83;1.67;;;;;9.03;64.46;99475.91;2005067;28;2741927;-78
2023/01/16 00:23:04;;;;;;;;;4.00;1.00;;;;;9.01;64.80;99473.38;2005076;28;2726328;-78
2023/01/16 00:24:18;;;;;;;;;1.50;1.00;;;;;9.02;64.55;99455.84;2005072;28;2729465;-77
2023/01/16 00:25:31;;;;;;;;;0.00;0.00;;;;;9.00;65.06;99462.03;2011064;28;2725270;-78
2023/01/16 00:26:44;;;;;;;;;4.33;1.67;;;;;9.02;65.17;99441.00;2006394;28;2739862;-77
2023/01/16 00:27:58;;;;;;;;;2.00;1.00;;;;;9.02;64.77;99434.88;2004696;28;2745153;-78
2023/01/16 00:29:11;;;;;;;;;2.00;0.33;;;;;9.03;64.99;99426.13;2013702;28;2729437;-77
2023/01/16 00:30:24;;;;;;;;;2.00;1.17;;;;;9.04;65.03;99419.97;2007127;28;2733603;-77
2023/01/16 00:31:37;;;;;;;;;0.00;0.00;;;;;9.04;64.89;99410.31;2005228;28;2729469;-77
2023/01/16 00:32:51;;;;;;;;;1.17;1.00;;;;;9.04;64.65;99393.75;2014392;28;2727354;-77
2023/01/16 00:34:04;;;;;;;;;6.50;1.00;;;;;9.05;64.64;99391.06;2019424;28;2737814;-77
2023/01/16 00:35:17;;;;;;;;;2.00;0.00;;;;;9.06;64.46;99382.25;2013356;28;2729445;-77
2023/01/16 00:36:30;;;;;;;;;2.50;0.17;;;;;9.06;64.60;99376.19;2021163;28;2720077;-77
2023/01/16 00:37:43;;;;;;;;;2.33;0.83;;;;;9.07;64.63;99372.63;2012032;28;2737754;-78
2023/01/16 00:38:57;;;;;;;;;1.00;1.00;;;;;9.08;64.68;99358.59;2005836;28;2726352;-77
2023/01/16 00:40:10;;;;;;;;;0.67;0.67;;;;;9.09;64.53;99355.03;2005613;28;2730477;-78
2023/01/16 00:41:23;;;;;;;;;2.00;0.83;;;;;9.10;64.85;99352.34;2013630;28;2729425;-78
2023/01/16 00:42:37;;;;;;;;;5.00;0.83;;;;;9.11;64.62;99342.72;2010447;28;2748222;-77
2023/01/16 00:43:51;;;;;;;;;1.50;0.00;;;;;9.11;64.51;99334.88;1998554;28;2734118;-78
2023/01/16 00:45:05;;;;;;;;;1.17;1.00;;;;;9.12;64.92;99336.53;2005102;28;2739368;-78
2023/01/16 00:46:18;;;;;;;;;3.17;1.00;;;;;9.11;64.63;99332.25;2013041;28;2739860;-78
2023/01/16 00:47:32;;;;;;;;;1.67;0.17;;;;;9.11;64.90;99316.53;2008117;28;2735730;-77
2023/01/16 00:48:45;;;;;;;;;1.67;1.00;;;;;9.11;64.50;99301.63;2006045;28;2729473;-78
2023/01/16 00:49:58;;;;;;;;;2.00;0.00;;;;;9.13;64.68;99292.84;2004903;28;2733994;-78
2023/01/16 00:51:11;;;;;;;;;0.00;0.00;;;;;9.12;64.55;99286.75;2004952;28;2727342;-78
2023/01/16 00:52:24;;;;;;;;;2.67;1.17;;;;;9.11;64.71;99266.72;2012103;28;2734216;-78
2023/01/16 00:53:38;;;;;;;;;2.33;0.67;;;;;9.10;64.57;99268.47;2019333;28;2736187;-78
2023/01/16 00:54:51;;;;;;;;;1.33;0.33;;;;;9.10;64.32;99263.25;2013137;28;2727361;-77
2023/01/16 00:56:05;;;;;;;;;1.00;0.00;;;;;9.10;64.29;99260.63;2012384;28;2724226;-77
2023/01/16 00:57:18;;;;;;;;;1.00;1.00;;;;;9.09;64.74;99258.06;2013441;28;2728419;-77
2023/01/16 00:58:32;;;;;;;;;2.00;0.00;;;;;9.10;64.70;99252.75;2013882;28;2723176;-78
2023/01/16 00:59:45;;;;;;;;;2.50;0.83;;;;;9.10;64.37;99236.16;2005879;28;2731525;-77
2023/01/16 01:00:58;;;;;;;;;4.00;2.50;;;;;9.11;64.42;99222.16;1982015;28;2746138;-78
2023/01/16 01:02:11;;;;;;;;;2.00;0.50;;;;;9.13;64.75;99219.44;2012573;28;2729922;-77
2023/01/16 01:03:26;;;;;;;;;1.50;0.17;;;;;9.15;64.86;99214.97;2011839;28;2726309;-78
2023/01/16 01:04:40;;;;;;;;;2.33;1.00;;;;;9.15;64.60;99207.94;2008258;28;2737766;-78
2023/01/16 01:05:53;;;;;;;;;1.17;1.00;;;;;9.17;64.50;99200.00;2012718;28;2740891;-78
2023/01/16 01:07:06;;;;;;;;;1.83;1.00;;;;;9.16;64.71;99199.16;2021144;28;2720059;-78
2023/01/16 01:08:19;;;;;;;;;3.50;0.50;;;;;9.20;64.45;99189.34;2018648;28;2742993;-78
2023/01/16 01:09:33;;;;;;;;;2.00;0.00;;;;;9.19;64.55;99167.53;1982915;28;2725739;-77
2023/01/16 01:10:46;;;;;;;;;2.00;0.67;;;;;9.17;64.24;99166.78;2010165;28;2727884;-78
2023/01/16 01:12:00;;;;;;;;;2.17;1.00;;;;;9.18;64.74;99165.00;2012749;28;2730539;-78
2023/01/16 01:13:13;;;;;;;;;0.00;0.00;;;;;9.17;64.27;99158.91;2012256;28;2741944;-78
2023/01/16 01:14:27;;;;;;;;;3.33;0.33;;;;;9.19;64.81;99156.19;2007157;28;2735701;-79
2023/01/16 01:15:40;;;;;;;;;2.00;0.00;;;;;9.20;64.20;99144.78;1985215;28;2724232;-77
2023/01/16 01:16:53;;;;;;;;;0.50;0.50;;;;;9.19;64.46;99133.44;2020595;28;2733659;-78
2023/01/16 01:18:06;;;;;;;;;0.17;0.17;;;;;9.21;64.41;99128.97;2020134;28;2725314;-78
2023/01/16 01:19:20;;;;;;;;;2.00;0.67;;;;;9.22;64.46;99117.56;2007516;28;2735698;-78
2023/01/16 01:20:33;;;;;;;;;1.17;1.00;;;;;9.24;64.63;99117.47;2004984;28;2739838;-78
2023/01/16 01:21:46;;;;;;;;;1.67;0.00;;;;;9.24;64.33;99099.13;2005591;28;2733614;-77
2023/01/16 01:22:59;;;;;;;;;0.00;0.00;;;;;9.25;64.08;99090.34;2005484;28;2724236;-77
2023/01/16 01:24:12;;;;;;;;;0.00;0.00;;;;;9.25;64.46;99087.72;2012761;28;2729425;-78
2023/01/16 01:25:26;;;;;;;;;2.50;0.00;;;;;9.26;64.23;99075.47;2011233;28;2743435;-78
2023/01/16 01:26:39;;;;;;;;;0.33;0.33;;;;;9.26;63.83;99065.81;2013187;28;2731520;-78
2023/01/16 01:27:52;;;;;;;;;2.17;0.00;;;;;9.26;64.64;99060.56;2013715;28;2729457;-77
2023/01/16 01:29:05;;;;;;;;;1.67;0.00;;;;;9.27;64.28;99046.53;2009697;28;2731516;-78
2023/01/16 01:30:19;;;;;;;;;0.00;0.00;;;;;9.28;64.31;99039.53;2012919;28;2729474;-78
2023/01/16 01:31:32;;;;;;;;;0.33;0.33;;;;;9.29;64.23;99035.94;2011925;28;2725731;-78
2023/01/16 01:32:45;;;;;;;;;0.17;0.00;;;;;9.30;64.52;99032.41;2012746;28;2724833;-79
2023/01/16 01:33:58;;;;;;;;;0.67;0.67;;;;;9.30;64.07;99021.91;2020204;28;2728422;-77
2023/01/16 01:35:12;;;;;;;;;0.00;0.00;;;;;9.30;64.30;99014.06;2018708;28;2728386;-78
2023/01/16 01:36:25;;;;;;;;;1.83;1.00;;;;;9.30;63.80;99008.81;2012266;28;2740899;-78
2023/01/16 01:37:38;;;;;;;;;2.00;0.50;;;;;9.30;64.18;98999.19;1989608;28;2722672;-78
2023/01/16 01:38:52;;;;;;;;;1.00;0.00;;;;;9.29;64.16;98994.00;2012893;28;2725874;-78
2023/01/16 01:40:06;;;;;;;;;0.17;0.17;;;;;9.30;64.35;98986.06;2013978;28;2724232;-78
2023/01/16 01:41:20;;;;;;;;;0.50;0.00;;;;;9.31;64.24;98977.25;2013288;28;2735683;-78
2023/01/16 01:42:45;;;;;;;;;0.50;0.50;;;;;9.32;64.25;98970.25;2021170;28;2735705;-78
2023/01/16 01:43:58;;;;;;;;;1.33;1.00;;;;;9.31;64.46;98961.53;2013681;28;2733631;-78
2023/01/16 01:45:30;;;;;;;;;1.67;0.67;;;;;9.32;64.39;98951.88;2007921;28;2725258;-78
2023/01/16 01:46:46;;;;;;;;;2.17;1.00;;;;;9.34;64.16;98947.41;2006133;28;2736736;-78
2023/01/16 01:48:19;;;;;;;;;2.83;0.33;;;;;9.35;64.33;98941.22;2014013;28;2731504;-77
2023/01/16 01:49:33;;;;;;;;;0.00;0.00;;;;;9.35;64.21;98925.50;2014594;28;2725262;-78
2023/01/16 01:50:53;;;;;;;;;0.50;0.50;;;;;9.34;64.39;98919.41;2013862;28;2733615;-78
2023/01/16 01:52:07;;;;;;;;;1.00;1.00;;;;;9.34;64.52;98906.28;2013604;28;2733619;-78
2023/01/16 01:53:29;;;;;;;;;1.33;0.00;;;;;9.35;64.62;98899.28;2014372;28;2734644;-78
2023/01/16 01:54:48;;;;;;;;;2.00;1.00;;;;;9.34;64.58;98890.56;2013297;28;2738795;-78
2023/01/16 01:56:08;;;;;;;;;0.67;0.00;;;;;9.35;64.72;98878.31;2013749;28;2727357;-78
2023/01/16 01:57:32;;;;;;;;;1.33;0.17;;;;;9.35;64.59;98870.44;2014682;28;2725262;-78
2023/01/16 01:58:51;;;;;;;;;1.33;0.17;;;;;9.36;65.37;98864.25;2014748;28;2733635;-78
2023/01/16 02:00:15;;;;;;;;;2.00;1.00;;;;;9.36;65.40;98848.50;2006782;28;2731524;-78
2023/01/16 02:01:30;;;;;;;;;1.00;0.00;;;;;9.36;65.13;98848.50;2007082;28;2729457;-78
2023/01/16 02:02:55;;;;;;;;;0.00;0.00;;;;;9.35;64.79;98833.72;2006438;28;2725259;-78
2023/01/16 02:04:21;;;;;;;;;1.50;0.00;;;;;9.31;64.99;98830.44;2008107;28;2721151;-78
2023/01/16 02:05:40;;;;;;;;;1.67;0.50;;;;;9.29;65.28;98820.97;2014177;28;2735678;-78
2023/01/16 02:07:01;;;;;;;;;4.33;0.00;;;;;9.29;65.29;98806.09;2013156;28;2740890;-78
2023/01/16 02:08:17;;;;;;;;;2.67;1.83;;;;;9.30;65.32;98820.03;2008888;28;2744008;-78
2023/01/16 02:09:30;;;;;;;;;0.00;0.00;;;;;9.29;65.69;98820.97;1984111;28;2730474;-77
2023/01/16 02:11:26;;;;;;;;;1.50;1.50;;;;;9.25;65.76;98816.84;2013389;28;2732621;-78
2023/01/16 02:12:39;;;;;;;;;0.67;0.00;;;;;9.22;65.79;98795.13;1990461;28;2725315;-77
2023/01/16 02:14:04;;;;;;;;;0.33;0.00;;;;;9.20;65.85;98791.75;2014587;28;2722206;-78
2023/01/16 02:15:19;;;;;;;;;0.00;0.00;;;;;9.18;66.17;98790.16;2014892;28;2733631;-78
2023/01/16 02:19:57;;;;;;;;;0.50;0.50;;;;;9.14;66.74;98760.66;2006692;28;2731537;-78
2023/01/16 02:21:52;;;;;;;;;2.33;0.50;;;;;9.13;67.21;98738.00;2014226;28;2721103;-78
2023/01/16 02:23:20;;;;;;;;;0.00;0.00;;;;;9.13;67.09;98742.41;2008280;28;2728386;-78
2023/01/16 02:25:02;;;;;;;;;0.50;0.00;;;;;9.10;67.31;98727.69;2013515;28;2731528;-77
2023/01/16 02:26:35;;;;;;;;;0.17;0.17;;;;;9.11;67.20;98729.41;2005980;28;2725263;-78
2023/01/16 02:28:29;;;;;;;;;0.50;0.00;;;;;9.07;66.73;98723.47;2010526;28;2724729;-78
2023/01/16 02:30:18;;;;;;;;;1.67;1.00;;;;;9.02;67.65;98699.31;1975662;29;2729493;-77
2023/01/16 02:31:55;;;;;;;;;1.00;1.00;;;;;8.98;67.47;98684.72;1991678;28;2738808;-77
2023/01/16 02:33:38;;;;;;;;;2.00;0.00;;;;;8.95;67.75;98693.59;2009854;28;2729445;-77
2023/01/16 02:35:13;;;;;;;;;1.83;0.50;;;;;8.93;68.12;98681.53;2005720;28;2736728;-77
2023/01/16 02:36:46;;;;;;;;;0.17;0.00;;;;;8.89;67.87;98665.97;2018011;28;2725907;-78
2023/01/16 02:38:19;;;;;;;;;0.00;0.00;;;;;8.87;68.09;98659.16;2018023;28;2733639;-78
2023/01/16 02:39:41;;;;;;;;;0.83;0.00;;;;;8.85;68.47;98661.03;2006404;28;2733588;-80
2023/01/16 02:41:29;;;;;;;;;0.00;0.00;;;;;8.84;68.39;98661.97;2006797;28;2732012;-78
2023/01/16 02:43:03;;;;;;;;;3.00;0.00;;;;;8.82;68.24;98656.81;2005767;28;2729922;-77
2023/01/16 02:44:53;;;;;;;;;0.00;0.00;;;;;8.83;68.59;98626.22;2002229;28;2725270;-78
2023/01/16 02:46:14;;;;;;;;;5.00;1.00;;;;;8.81;68.78;98622.84;2018582;28;2740889;-78
2023/01/16 02:47:42;;;;;;;;;0.83;0.50;;;;;8.76;68.04;98621.34;1983623;28;2727362;-78
2023/01/16 02:49:07;;;;;;;;;0.00;0.00;;;;;8.76;68.36;98608.25;2006923;28;2728399;-78
2023/01/16 02:51:04;;;;;;;;;0.00;0.00;;;;;8.74;68.52;98607.47;2014230;28;2724225;-79
2023/01/16 02:52:59;;;;;;;;;0.00;0.00;;;;;8.69;68.88;98599.09;1987713;28;2733672;-80
2023/01/16 02:54:32;;;;;;;;;0.00;0.00;;;;;8.66;68.73;98573.06;1990929;28;2725274;-77
2023/01/16 02:55:51;;;;;;;;;0.00;0.00;;;;;8.63;68.71;98579.34;2002411;28;2722165;-79
2023/01/16 02:57:16;;;;;;;;;0.00;0.00;;;;;8.61;68.85;98568.13;2006864;28;2725282;-79
2023/01/16 02:58:32;;;;;;;;;0.33;0.00;;;;;8.59;69.37;98572.59;2005668;28;2726320;-78
2023/01/16 02:59:48;;;;;;;;;0.00;0.00;;;;;8.56;69.25;98562.28;2007967;28;2727342;-78
2023/01/16 03:01:02;;;;;;;;;0.00;0.00;;;;;8.53;69.20;98568.53;2013617;28;2725266;-78
2023/01/16 03:02:15;;;;;;;;;0.50;0.00;;;;;8.51;69.41;98552.06;2013861;28;2731524;-78
2023/01/16 03:03:50;;;;;;;;;0.00;0.00;;;;;8.49;68.84;98551.34;2007797;28;2729464;-78
2023/01/16 03:05:04;;;;;;;;;0.67;0.00;;;;;8.48;69.25;98560.09;2006961;28;2724241;-79
2023/01/16 03:06:17;;;;;;;;;0.00;0.00;;;;;8.48;69.39;98549.63;2006120;28;2733604;-79
2023/01/16 03:07:30;;;;;;;;;0.00;0.00;;;;;8.47;69.34;98545.31;2012707;28;2731527;-78
2023/01/16 03:09:06;;;;;;;;;0.00;0.00;;;;;8.46;69.21;98545.41;2013405;28;2716934;-78
2023/01/16 03:10:31;;;;;;;;;0.00;0.00;;;;;8.44;69.29;98535.06;2006165;28;2733616;-78
2023/01/16 03:12:17;;;;;;;;;1.17;0.00;;;;;8.40;69.58;98530.91;2006778;28;2725255;-79
2023/01/16 03:13:36;;;;;;;;;0.00;0.00;;;;;8.38;69.34;98532.78;2006654;28;2731516;-78
2023/01/16 03:15:26;;;;;;;;;0.83;0.67;;;;;8.38;69.84;98522.31;2013499;28;2725295;-78
2023/01/16 03:17:04;;;;;;;;;0.00;0.00;;;;;8.37;69.93;98523.25;1997137;28;2725294;-78
2023/01/16 03:18:33;;;;;;;;;1.00;0.00;;;;;8.36;69.55;98495.38;2010156;28;2733607;-80
2023/01/16 03:20:11;;;;;;;;;0.00;0.00;;;;;8.33;69.69;98493.78;2013218;28;2733685;-78
2023/01/16 03:21:41;;;;;;;;;0.00;0.00;;;;;8.29;69.84;98495.78;2006499;28;2724224;-78
2023/01/16 03:23:09;;;;;;;;;0.00;0.00;;;;;8.26;69.60;98493.31;2007318;28;2729462;-79
2023/01/16 03:24:40;;;;;;;;;0.00;0.00;;;;;8.22;70.14;98487.41;2014082;28;2723652;-78
2023/01/16 03:26:07;;;;;;;;;0.00;0.00;;;;;8.19;70.07;98479.78;2022585;28;2716933;-80
2023/01/16 03:27:30;;;;;;;;;0.00;0.00;;;;;8.17;70.56;98473.75;2016982;28;2712108;-80
2023/01/16 03:29:10;;;;;;;;;1.00;0.00;;;;;8.14;69.95;98479.19;2022214;28;2721116;-79
2023/01/16 03:30:59;;;;;;;;;0.00;0.00;;;;;8.13;70.06;98476.66;2016052;28;2725683;-78
2023/01/16 03:32:30;;;;;;;;;0.00;0.00;;;;;8.10;70.21;98473.28;2006337;28;2725263;-81
2023/01/16 03:33:46;;;;;;;;;0.00;0.00;;;;;8.10;70.71;98478.53;2007271;28;2721155;-79
2023/01/16 03:35:11;;;;;;;;;0.00;0.00;;;;;8.10;70.38;98467.22;2013270;28;2731551;-78
2023/01/16 03:36:33;;;;;;;;;0.00;0.00;;;;;8.09;70.62;98476.00;2011626;28;2723236;-78
2023/01/16 03:37:51;;;;;;;;;0.00;0.00;;;;;8.09;70.83;98482.09;2014404;28;2725262;-80
2023/01/16 03:39:08;;;;;;;;;0.83;0.00;;;;;8.10;70.41;98477.69;2014258;28;2725266;-78
2023/01/16 03:40:26;;;;;;;;;0.00;0.00;;;;;8.08;70.52;98456.84;2014596;28;2723537;-79
2023/01/16 03:41:43;;;;;;;;;1.17;0.00;;;;;8.08;70.55;98448.16;2013809;28;2725263;-79
2023/01/16 03:43:21;;;;;;;;;0.00;0.00;;;;;8.09;71.05;98462.94;2012307;28;2722140;-79
2023/01/16 03:44:38;;;;;;;;;0.00;0.00;;;;;8.08;70.66;98459.47;2020027;28;2724257;-79
2023/01/16 03:46:16;;;;;;;;;1.33;0.00;;;;;8.06;70.99;98458.72;2017102;28;2719387;-78
2023/01/16 03:47:34;;;;;;;;;0.00;0.00;;;;;8.06;71.10;98450.03;2006090;28;2719017;-79
2023/01/16 03:48:58;;;;;;;;;0.00;0.00;;;;;8.06;71.05;98457.88;2007496;28;2706526;-79
2023/01/16 03:50:14;;;;;;;;;0.00;0.00;;;;;8.03;70.92;98471.97;2007917;28;2708627;-79
2023/01/16 03:51:32;;;;;;;;;1.00;0.00;;;;;8.02;70.47;98459.84;2018799;28;2721097;-79
2023/01/16 03:52:51;;;;;;;;;0.00;0.00;;;;;8.01;70.55;98466.00;2020615;28;2705471;-80
2023/01/16 03:54:16;;;;;;;;;0.00;0.00;;;;;7.98;70.42;98442.63;2014544;28;2704435;-79
2023/01/16 03:55:45;;;;;;;;;0.00;0.00;;;;;7.99;70.45;98439.09;2014093;28;2721097;-79
2023/01/16 03:57:08;;;;;;;;;0.17;0.00;;;;;7.98;71.12;98433.00;2007092;28;2720126;-79
2023/01/16 03:58:35;;;;;;;;;0.00;0.00;;;;;7.98;70.74;98442.63;2007085;28;2714849;-79
2023/01/16 03:59:50;;;;;;;;;0.83;0.00;;;;;7.98;70.92;98447.84;2013953;28;2724245;-80
2023/01/16 04:01:24;;;;;;;;;0.00;0.00;;;;;8.00;70.94;98453.84;2011883;28;2712768;-79
2023/01/16 04:02:51;;;;;;;;;0.00;0.00;;;;;7.99;71.24;98439.09;2015679;28;2704423;-79
2023/01/16 04:04:06;;;;;;;;;1.33;0.00;;;;;7.95;71.19;98420.09;2014351;28;2716929;-79
2023/01/16 04:05:34;;;;;;;;;0.33;0.00;;;;;7.95;71.02;98424.50;2015708;28;2691950;-79
2023/01/16 04:07:20;;;;;;;;;0.00;0.00;;;;;7.93;71.21;98418.50;2014525;28;2712779;-79
2023/01/16 04:08:37;;;;;;;;;0.00;0.00;;;;;7.92;70.92;98390.69;1984941;28;2721109;-79
2023/01/16 04:09:57;;;;;;;;;0.00;0.00;;;;;7.92;71.05;98390.69;2017477;28;2704469;-79
2023/01/16 04:11:12;;;;;;;;;3.33;0.00;;;;;7.88;71.04;98380.41;2012713;28;2713824;-79
2023/01/16 04:12:32;;;;;;;;;0.00;0.00;;;;;7.88;71.33;98380.41;2000480;28;2712790;-79
2023/01/16 04:13:51;;;;;;;;;0.00;0.00;;;;;7.86;71.06;98374.41;2008443;28;2691983;-78
2023/01/16 04:15:07;;;;;;;;;0.00;0.00;;;;;7.87;71.30;98362.19;2022826;28;2705476;-79
2023/01/16 04:16:21;;;;;;;;;0.00;0.00;;;;;7.87;70.99;98365.66;2014737;28;2700291;-79
2023/01/16 04:17:37;;;;;;;;;0.00;0.00;;;;;7.85;70.89;98338.72;2012433;28;2704423;-79
2023/01/16 04:18:54;;;;;;;;;0.00;0.00;;;;;7.85;70.60;98345.75;2006648;28;2704981;-79
2023/01/16 04:20:08;;;;;;;;;0.00;0.00;;;;;7.84;70.79;98354.53;2007927;28;2698200;-79
2023/01/16 04:21:26;;;;;;;;;0.00;0.00;;;;;7.83;70.73;98337.97;2008058;28;2703404;-81
2023/01/16 04:22:40;;;;;;;;;0.00;0.00;;;;;7.83;70.95;98324.06;2008750;28;2703395;-79
2023/01/16 04:23:56;;;;;;;;;0.00;0.00;;;;;7.82;71.23;98323.25;2015134;28;2706520;-79
2023/01/16 04:25:10;;;;;;;;;1.00;0.00;;;;;7.84;70.88;98329.22;2014529;28;2716938;-78
2023/01/16 04:26:23;;;;;;;;;0.00;0.00;;;;;7.86;71.17;98323.88;2009274;28;2696096;-79
2023/01/16 04:27:36;;;;;;;;;0.83;0.00;;;;;7.85;70.49;98312.56;2007355;28;2700271;-79
2023/01/16 04:28:54;;;;;;;;;0.00;0.00;;;;;7.85;71.07;98319.59;2007812;28;2703760;-78
2023/01/16 04:30:08;;;;;;;;;0.50;0.00;;;;;7.85;70.39;98306.53;2011701;28;2709641;-79
2023/01/16 04:31:23;;;;;;;;;0.00;0.00;;;;;7.85;70.47;98302.13;2014937;28;2691959;-80
2023/01/16 04:32:37;;;;;;;;;0.00;0.00;;;;;7.86;70.02;98306.41;2008532;28;2691942;-81
2023/01/16 04:33:50;;;;;;;;;0.00;0.00;;;;;7.86;70.55;98306.41;2008614;28;2692010;-79
2023/01/16 04:35:04;;;;;;;;;0.00;0.00;;;;;7.86;70.79;98300.34;2014691;28;2723684;-78
2023/01/16 04:36:18;;;;;;;;;0.00;0.00;;;;;7.86;70.35;98284.66;2016269;28;2691931;-79
2023/01/16 04:37:31;;;;;;;;;1.00;0.00;;;;;7.87;70.53;98278.50;2012029;28;2716957;-81
2023/01/16 04:38:44;;;;;;;;;0.00;0.00;;;;;7.86;70.55;98288.13;2008498;28;2691942;-78
2023/01/16 04:39:58;;;;;;;;;1.00;0.00;;;;;7.86;70.08;98279.41;2014167;28;2712767;-79
2023/01/16 04:41:12;;;;;;;;;0.00;0.00;;;;;7.85;70.20;98280.38;2014413;28;2691962;-79
2023/01/16 04:42:25;;;;;;;;;0.00;0.00;;;;;7.85;70.10;98275.97;2009202;28;2691915;-79
2023/01/16 04:43:38;;;;;;;;;0.00;0.00;;;;;7.85;70.60;98262.88;2023663;28;2691951;-79
2023/01/16 04:44:51;;;;;;;;;0.00;0.00;;;;;7.86;70.38;98272.41;2013802;28;2706521;-79
2023/01/16 04:46:05;;;;;;;;;0.00;0.00;;;;;7.87;70.35;98265.41;2019689;28;2691943;-78
2023/01/16 04:47:18;;;;;;;;;0.00;0.00;;;;;7.89;70.40;98271.38;2014486;28;2698195;-78
2023/01/16 04:48:31;;;;;;;;;0.00;0.00;;;;;7.88;70.83;98254.84;1998551;28;2733631;-78
2023/01/16 04:49:44;;;;;;;;;2.00;0.00;;;;;7.91;71.18;98234.66;2005993;28;2725267;-79
2023/01/16 04:50:58;;;;;;;;;0.00;0.00;;;;;7.95;70.74;98228.31;2015082;28;2707089;-78
2023/01/16 04:52:12;;;;;;;;;0.00;0.00;;;;;7.98;71.14;98235.97;2013879;28;2721119;-78
2023/01/16 04:53:25;;;;;;;;;0.00;0.00;;;;;8.01;70.52;98221.84;2008230;28;2721076;-78
2023/01/16 04:54:38;;;;;;;;;0.00;0.00;;;;;8.06;71.28;98219.78;2008246;28;2701382;-78
2023/01/16 04:55:51;;;;;;;;;0.00;0.00;;;;;8.07;70.84;98209.25;2015674;28;2702371;-78
2023/01/16 04:57:05;;;;;;;;;0.00;0.00;;;;;8.09;70.63;98214.38;2014339;28;2698179;-78
2023/01/16 04:58:18;;;;;;;;;0.00;0.00;;;;;8.12;70.68;98192.41;2012018;28;2725286;-79
2023/01/16 04:59:31;;;;;;;;;0.00;0.00;;;;;8.12;70.90;98198.50;2006524;28;2719459;-78
2023/01/16 05:00:44;;;;;;;;;0.00;0.00;;;;;8.15;70.43;98193.03;2015027;28;2708664;-78
2023/01/16 05:01:57;;;;;;;;;0.00;0.00;;;;;8.17;70.75;98182.50;2011928;28;2723171;-78
2023/01/16 05:03:11;;;;;;;;;0.00;0.00;;;;;8.17;70.63;98172.03;2014311;28;2716946;-79
2023/01/16 05:04:24;;;;;;;;;0.67;0.00;;;;;8.17;70.67;98162.38;2013781;28;2716953;-78
2023/01/16 05:05:38;;;;;;;;;0.00;0.00;;;;;8.18;70.81;98157.97;2013663;28;2723175;-78
2023/01/16 05:06:51;;;;;;;;;0.00;0.00;;;;;8.19;70.79;98151.81;2013855;28;2701353;-79
2023/01/16 05:08:16;;;;;;;;;1.00;0.00;;;;;8.20;70.80;98145.63;2012455;28;2725278;-79
2023/01/16 05:09:30;;;;;;;;;0.00;0.00;;;;;8.21;70.55;98150.78;2021829;28;2711729;-78
2023/01/16 05:10:43;;;;;;;;;0.00;0.00;;;;;8.21;70.83;98145.56;2015403;28;2720062;-78
2023/01/16 05:11:56;;;;;;;;;1.00;0.00;;;;;8.23;70.96;98142.81;2005568;28;2733633;-78
2023/01/16 05:13:09;;;;;;;;;0.00;0.00;;;;;8.24;70.94;98127.97;2005531;28;2719033;-78
2023/01/16 05:14:23;;;;;;;;;0.00;0.00;;;;;8.24;71.12;98133.19;2007855;28;2694018;-78
2023/01/16 05:15:36;;;;;;;;;0.00;0.00;;;;;8.26;71.29;98131.31;2006202;28;2725273;-78
2023/01/16 05:16:49;;;;;;;;;0.00;0.00;;;;;8.27;70.90;98123.34;2016375;28;2716957;-78
2023/01/16 05:18:02;;;;;;;;;0.00;0.00;;;;;8.29;70.91;98124.13;2019976;28;2725712;-79
2023/01/16 05:19:15;;;;;;;;;0.00;0.00;;;;;8.31;70.77;98126.63;2013962;28;2725327;-78
2023/01/16 05:20:29;;;;;;;;;0.00;0.00;;;;;8.31;71.05;98109.16;2013714;28;2725290;-78
2023/01/16 05:21:42;;;;;;;;;1.00;0.00;;;;;8.33;70.99;98111.66;2007994;28;2723204;-79
2023/01/16 05:22:55;;;;;;;;;0.00;0.00;;;;;8.33;71.18;98111.66;2005727;28;2721088;-79
2023/01/16 05:24:08;;;;;;;;;0.00;0.00;;;;;8.33;71.09;98101.19;2013494;28;2710680;-79
2023/01/16 05:25:21;;;;;;;;;1.17;0.00;;;;;8.35;71.25;98088.00;2010575;28;2698188;-79
2023/01/16 05:26:35;;;;;;;;;0.00;0.00;;;;;8.36;71.15;98081.81;2011509;28;2739849;-79
2023/01/16 05:27:51;;;;;;;;;1.00;0.00;;;;;8.35;70.90;98086.22;2014545;28;2710680;-79
2023/01/16 05:29:04;;;;;;;;;0.50;0.00;;;;;8.37;70.57;98086.13;2011578;28;2721096;-79
2023/01/16 05:30:17;;;;;;;;;0.33;0.00;;;;;8.37;70.81;98096.59;2005964;28;2725754;-78
2023/01/16 05:31:31;;;;;;;;;0.00;0.00;;;;;8.36;70.92;98073.97;2007095;28;2723198;-80
2023/01/16 05:32:44;;;;;;;;;0.00;0.00;;;;;8.38;70.98;98074.69;2013817;28;2723175;-79
2023/01/16 05:33:57;;;;;;;;;0.00;0.00;;;;;8.38;71.05;98067.69;2013701;28;2724224;-79
2023/01/16 05:35:10;;;;;;;;;0.00;0.00;;;;;8.40;70.78;98080.66;2010318;28;2733651;-79
2023/01/16 05:36:24;;;;;;;;;0.00;0.00;;;;;8.40;70.97;98070.19;2013830;28;2725640;-79
2023/01/16 05:37:37;;;;;;;;;0.00;0.00;;;;;8.41;70.70;98071.88;2012968;28;2725257;-79
2023/01/16 05:38:50;;;;;;;;;0.33;0.00;;;;;8.40;70.52;98055.34;2008080;28;2725270;-79
2023/01/16 05:40:04;;;;;;;;;0.00;0.00;;;;;8.40;71.10;98059.72;2012144;28;2722145;-79
2023/01/16 05:41:17;;;;;;;;;2.17;0.00;;;;;8.42;70.59;98052.63;2004957;28;2735679;-79
2023/01/16 05:42:31;;;;;;;;;0.00;0.00;;;;;8.42;70.66;98058.69;2005482;28;2731549;-79
2023/01/16 05:43:44;;;;;;;;;1.33;0.67;;;;;8.44;70.63;98067.28;2012520;28;2732570;-79
2023/01/16 05:44:57;;;;;;;;;0.00;0.00;;;;;8.42;70.29;98048.22;2012047;28;2731504;-78
2023/01/16 05:46:11;;;;;;;;;0.83;0.00;;;;;8.44;70.69;98042.91;2028020;28;2725301;-79
2023/01/16 05:47:24;;;;;;;;;2.50;0.00;;;;;8.46;71.05;98038.38;2013793;28;2721111;-79
2023/01/16 05:48:38;;;;;;;;;2.17;0.00;;;;;8.47;70.65;98034.81;2012523;28;2729452;-79
2023/01/16 05:49:51;;;;;;;;;0.67;0.00;;;;;8.50;71.07;98046.84;2012980;28;2725271;-78
2023/01/16 05:51:05;;;;;;;;;0.00;0.00;;;;;8.52;70.68;98032.72;2012579;28;2733592;-79
2023/01/16 05:52:18;;;;;;;;;2.17;0.17;;;;;8.53;70.67;98029.19;2012544;28;2733595;-79
2023/01/16 05:53:32;;;;;;;;;0.00;0.00;;;;;8.54;70.91;98028.22;2012149;28;2733604;-80
2023/01/16 05:54:45;;;;;;;;;0.00;0.00;;;;;8.55;70.89;98021.22;2012969;28;2733606;-79
2023/01/16 05:55:58;;;;;;;;;0.00;0.00;;;;;8.54;70.22;98016.94;2014410;28;2727356;-78
2023/01/16 05:57:12;;;;;;;;;1.00;0.00;;;;;8.55;70.47;98018.59;2020968;28;2717987;-79
2023/01/16 05:58:25;;;;;;;;;0.00;0.00;;;;;8.56;70.16;98015.03;2005572;28;2728379;-79
2023/01/16 05:59:41;;;;;;;;;2.17;0.00;;;;;8.55;70.48;98018.59;2004283;28;2729453;-79
2023/01/16 06:00:54;;;;;;;;;2.67;0.50;;;;;8.54;69.98;98022.97;2006160;28;2729436;-79
2023/01/16 06:02:07;;;;;;;;;0.50;0.00;;;;;8.53;70.25;98013.47;2013302;28;2729429;-79
2023/01/16 06:03:21;;;;;;;;;0.00;0.00;;;;;8.54;70.47;98014.31;2013396;28;2724236;-80
2023/01/16 06:04:34;;;;;;;;;0.17;0.17;;;;;8.55;70.43;97998.50;2012589;28;2724225;-79
2023/01/16 06:05:48;;;;;;;;;3.33;0.67;;;;;8.58;70.13;98001.84;2008601;28;2735667;-79
2023/01/16 06:07:01;;;;;;;;;2.83;0.00;;;;;8.57;70.24;97997.56;2013229;28;2728427;-79
2023/01/16 06:08:14;;;;;;;;;1.50;0.83;;;;;8.59;70.36;97996.53;2011827;28;2732546;-81